createdAt,value
2022-11-01T00:02:11.214Z,1.59
2022-11-01T00:04:38.289Z,1.62
2022-11-01T00:07:05.379Z,1.58
2022-11-01T00:09:32.046Z,1.57
2022-11-01T00:11:59.277Z,1.58
2022-11-01T00:14:25.871Z,1.58
2022-11-01T00:16:52.501Z,1.60
2022-11-01T00:19:20.305Z,1.61
2022-11-01T00:21:46.875Z,1.63
2022-11-01T00:24:13.518Z,1.68
2022-11-01T00:26:40.382Z,1.69
2022-11-01T00:29:07.138Z,1.67
2022-11-01T00:31:33.972Z,1.71
2022-11-01T00:34:05.800Z,1.70
2022-11-01T00:36:33.893Z,1.71
2022-11-01T00:39:00.504Z,1.61
2022-11-01T00:41:27.332Z,1.68
2022-11-01T00:43:53.978Z,1.65
2022-11-01T00:46:21.536Z,1.73
2022-11-01T00:48:48.207Z,1.69
2022-11-01T00:51:14.806Z,1.73
2022-11-01T00:53:41.704Z,1.75
2022-11-01T00:56:08.581Z,1.76
2022-11-01T00:58:35.608Z,1.81
2022-11-01T01:01:02.535Z,1.78
2022-11-01T01:03:30.174Z,1.74
2022-11-01T01:05:57.117Z,1.86
2022-11-01T01:08:24.797Z,1.84
2022-11-01T01:10:53.401Z,1.85
2022-11-01T01:13:20.266Z,1.80
2022-11-01T01:15:47.450Z,1.91
2022-11-01T01:18:15.338Z,1.91
2022-11-01T01:20:41.974Z,1.96
2022-11-01T01:23:08.700Z,1.98
2022-11-01T01:25:35.335Z,2.01
2022-11-01T01:28:02.305Z,2.02
2022-11-01T01:30:29.107Z,2.06
2022-11-01T01:32:56.417Z,2.08
2022-11-01T01:35:22.981Z,2.05
2022-11-01T01:37:49.579Z,1.94
2022-11-01T01:40:16.217Z,2.04
2022-11-01T01:42:43.650Z,2.05
2022-11-01T01:45:33.443Z,2.09
2022-11-01T01:48:25.066Z,2.08
2022-11-01T01:51:02.676Z,2.08
2022-11-01T01:53:33.382Z,2.00
2022-11-01T01:56:03.292Z,1.97
2022-11-01T01:58:33.425Z,1.97
2022-11-01T02:01:00.241Z,2.02
2022-11-01T02:03:34.479Z,2.02
2022-11-01T02:06:09.359Z,2.00
2022-11-01T02:08:38.486Z,1.99
2022-11-01T02:11:07.061Z,1.98
2022-11-01T02:13:34.033Z,1.95
2022-11-01T02:16:21.922Z,1.97
2022-11-01T02:19:11.142Z,1.99
2022-11-01T02:22:00.005Z,1.98
2022-11-01T02:24:48.203Z,1.97
2022-11-01T02:27:24.564Z,1.83
2022-11-01T02:30:01.820Z,1.90
2022-11-01T02:32:37.358Z,1.92
2022-11-01T02:35:22.677Z,1.89
2022-11-01T02:38:02.529Z,1.89
2022-11-01T02:40:57.788Z,1.87
2022-11-01T02:43:31.405Z,1.80
2022-11-01T02:46:21.456Z,1.89
2022-11-01T02:48:50.969Z,1.87
2022-11-01T02:51:21.406Z,1.88
2022-11-01T02:53:48.017Z,1.88
2022-11-01T02:56:17.361Z,1.91
2022-11-01T02:58:46.420Z,1.87
2022-11-01T03:01:20.718Z,1.90
2022-11-01T03:03:49.418Z,1.88
2022-11-01T03:06:24.719Z,1.91
2022-11-01T03:08:57.706Z,1.86
2022-11-01T03:11:32.638Z,1.90
2022-11-01T03:14:28.295Z,1.74
2022-11-01T03:17:13.586Z,1.91
2022-11-01T03:19:47.599Z,1.93
2022-11-01T03:22:26.840Z,1.92
2022-11-01T03:25:33.801Z,1.93
2022-11-01T03:28:07.597Z,1.94
2022-11-01T03:30:35.472Z,1.92
2022-11-01T03:33:02.402Z,1.91
2022-11-01T03:35:35.982Z,1.93
2022-11-01T03:38:06.889Z,1.95
2022-11-01T03:40:36.027Z,1.96
2022-11-01T03:43:13.373Z,1.93
2022-11-01T03:45:41.172Z,1.91
2022-11-01T03:48:08.978Z,1.95
2022-11-01T03:50:35.805Z,1.96
2022-11-01T03:53:02.410Z,1.99
2022-11-01T03:55:28.997Z,1.99
2022-11-01T03:58:00.150Z,1.93
2022-11-01T04:00:33.179Z,2.00
2022-11-01T04:03:00.927Z,1.92
2022-11-01T04:05:29.718Z,1.97
2022-11-01T04:07:56.633Z,1.98
2022-11-01T04:10:25.658Z,2.01
2022-11-01T04:12:53.295Z,1.96
2022-11-01T04:15:40.226Z,1.97
2022-11-01T04:18:36.283Z,1.93
2022-11-01T04:21:11.682Z,2.03
2022-11-01T04:23:38.559Z,2.00
2022-11-01T04:26:06.176Z,1.99
2022-11-01T04:28:33.177Z,1.92
2022-11-01T04:30:59.789Z,1.98
2022-11-01T04:33:26.358Z,2.03
2022-11-01T04:35:54.866Z,1.98
2022-11-01T04:38:21.835Z,2.03
2022-11-01T04:40:48.426Z,2.03
2022-11-01T04:43:15.946Z,2.01
2022-11-01T04:45:42.595Z,1.99
2022-11-01T04:48:17.657Z,2.01
2022-11-01T04:50:45.629Z,2.05
2022-11-01T04:53:15.468Z,2.03
2022-11-01T04:55:44.405Z,2.00
2022-11-01T04:58:11.337Z,2.00
2022-11-01T05:00:38.764Z,2.03
2022-11-01T05:03:10.140Z,2.03
2022-11-01T05:05:37.088Z,2.01
2022-11-01T05:08:13.853Z,2.03
2022-11-01T05:10:43.024Z,2.01
2022-11-01T05:13:11.114Z,2.02
2022-11-01T05:15:40.055Z,1.88
2022-11-01T05:18:10.614Z,1.95
2022-11-01T05:20:37.394Z,1.98
2022-11-01T05:23:06.289Z,1.96
2022-11-01T05:25:37.027Z,1.98
2022-11-01T05:28:12.333Z,1.95
2022-11-01T19:14:26.536Z,0.25
2022-11-01T19:16:54.239Z,0.33
2022-11-01T19:19:21.385Z,0.36
2022-11-01T19:21:48.189Z,0.46
2022-11-01T19:24:36.160Z,0.53
2022-11-01T19:27:12.158Z,0.57
2022-11-01T19:29:38.731Z,0.65
2022-11-01T19:32:14.795Z,0.70
2022-11-01T19:34:41.873Z,0.63
2022-11-01T19:37:33.264Z,0.79
2022-11-01T19:40:12.383Z,0.78
2022-11-01T19:42:42.757Z,0.77
2022-11-01T19:45:09.343Z,0.89
2022-11-01T19:47:43.306Z,0.88
2022-11-01T19:50:36.145Z,0.89
2022-11-01T19:53:03.566Z,0.90
2022-11-01T19:55:54.545Z,0.92
2022-11-01T19:58:25.985Z,0.87
2022-11-01T20:01:03.508Z,0.83
2022-11-01T20:03:39.851Z,0.93
2022-11-01T20:06:19.423Z,0.99
2022-11-01T20:08:49.397Z,0.92
2022-11-01T20:11:17.935Z,0.95
2022-11-01T20:13:46.092Z,0.96
2022-11-01T20:16:12.750Z,0.94
2022-11-01T20:18:39.482Z,0.85
2022-11-01T20:21:06.908Z,0.95
2022-11-01T20:23:35.182Z,0.93
2022-11-01T20:26:03.895Z,0.86
2022-11-01T20:28:30.891Z,0.81
2022-11-01T20:31:01.234Z,0.84
2022-11-01T20:33:27.814Z,0.79
2022-11-01T20:35:54.379Z,0.78
2022-11-01T20:38:21.868Z,0.86
2022-11-01T20:40:48.544Z,0.79
2022-11-01T20:43:15.338Z,0.74
2022-11-01T20:45:43.111Z,0.83
2022-11-01T20:48:10.139Z,0.85
2022-11-01T20:50:36.802Z,0.89
2022-11-01T20:53:06.296Z,0.76
2022-11-01T20:55:34.003Z,0.89
2022-11-01T20:58:00.898Z,0.91
2022-11-01T21:00:28.161Z,0.87
2022-11-01T21:02:56.631Z,0.83
2022-11-01T21:05:26.060Z,0.85
2022-11-01T21:08:26.582Z,0.86
2022-11-01T21:11:06.303Z,0.86
2022-11-01T21:13:37.207Z,0.85
2022-11-01T21:16:23.500Z,0.81
2022-11-01T21:18:53.791Z,0.86
2022-11-01T21:21:45.227Z,0.85
2022-11-01T21:24:34.951Z,0.85
2022-11-01T21:27:13.227Z,0.84
2022-11-01T21:29:42.911Z,0.77
2022-11-01T21:32:24.914Z,0.74
2022-11-01T21:34:52.090Z,0.69
2022-11-01T21:37:22.156Z,0.69
2022-11-01T21:39:59.005Z,0.64
2022-11-01T21:42:32.318Z,0.65
2022-11-01T21:44:59.261Z,0.68
2022-11-01T21:47:29.135Z,0.71
2022-11-01T21:49:55.871Z,0.67
2022-11-01T21:52:23.235Z,0.76
2022-11-01T21:54:50.184Z,0.72
2022-11-01T21:57:17.471Z,0.54
2022-11-01T21:59:44.515Z,0.46
2022-11-01T22:02:13.286Z,0.42
2022-11-01T22:04:40.111Z,0.46
2022-11-01T22:07:08.134Z,0.43
2022-11-01T22:09:35.461Z,0.51
2022-11-01T22:12:03.127Z,0.49
2022-11-01T22:14:30.266Z,0.40
2022-11-01T22:16:57.036Z,0.38
2022-11-01T22:19:23.847Z,0.37
2022-11-01T22:21:50.466Z,0.34
2022-11-01T22:24:17.107Z,0.32
2022-11-01T22:26:43.691Z,0.19
2022-11-01T22:29:10.343Z,0.19
2022-11-01T22:31:36.934Z,0.14
2022-11-01T22:34:03.572Z,0.15
2022-11-01T22:36:32.938Z,0.16
2022-11-01T22:39:01.374Z,0.12
2022-11-01T22:41:32.805Z,0.23
2022-11-01T22:44:06.842Z,0.27
2022-11-01T22:46:53.603Z,0.30
2022-11-01T22:49:34.128Z,0.27
2022-11-01T22:52:12.116Z,0.23
2022-11-01T22:54:43.009Z,0.30
2022-11-01T22:57:12.091Z,0.32
2022-11-01T22:59:49.070Z,0.26
2022-11-01T23:02:28.900Z,0.33
2022-11-01T23:05:06.098Z,0.32
2022-11-01T23:07:40.274Z,0.34
2022-11-01T23:10:25.086Z,0.31
2022-11-01T23:13:16.872Z,0.23
2022-11-01T23:15:44.496Z,0.21
2022-11-01T23:18:21.352Z,0.24
2022-11-01T23:21:01.035Z,0.25
2022-11-01T23:23:28.240Z,0.23
2022-11-01T23:25:56.201Z,0.16
2022-11-01T23:28:23.610Z,0.22
2022-11-01T23:30:51.784Z,0.28
2022-11-01T23:33:20.537Z,0.23
2022-11-01T23:36:02.149Z,0.24
2022-11-01T23:38:37.811Z,0.25
2022-11-01T23:41:04.814Z,0.29
2022-11-01T23:43:38.908Z,0.29
2022-11-01T23:46:06.410Z,0.31
2022-11-01T23:48:33.614Z,0.32
2022-11-01T23:51:00.633Z,0.24
2022-11-01T23:53:40.174Z,0.26
2022-11-01T23:56:09.003Z,0.25
2022-11-01T23:58:37.376Z,0.21
